Time;durP1;ratioP1;P1;durP2;ratioP2;P2;SDS_P1;SDS_P2;PMS_P1;PMS_P2;Temp;Humidity;BMP_temperature;BMP_pressure;BME280_temperature;BME280_humidity;BME280_pressure;Samples;Min_cycle;Max_cycle;Signal;HPM_P1;HPM_P2
2022/10/16 00:01:52;;;;;;;0.00;0.00;;;;;;;17.81;71.49;97801.47;8416721;28;20229;-77
2022/10/16 00:05:55;;;;;;;0.00;0.00;;;;;;;17.78;71.30;97806.00;8416807;28;20244;-76
2022/10/16 00:09:59;;;;;;;0.00;0.00;;;;;;;17.78;71.14;97813.00;8416518;28;20235;-76
2022/10/16 00:14:04;;;;;;;0.00;0.00;;;;;;;17.82;71.14;97809.22;8416088;28;20239;-77
2022/10/16 00:18:07;;;;;;;0.00;0.00;;;;;;;17.80;70.76;97808.50;8416306;28;20419;-76
2022/10/16 00:22:10;;;;;;;0.00;0.00;;;;;;;17.79;71.38;97809.44;8416194;28;20230;-76
2022/10/16 00:26:16;;;;;;;0.00;0.00;;;;;;;17.83;71.10;97810.88;8416203;28;20532;-76
2022/10/16 00:30:19;;;;;;;0.00;0.00;;;;;;;17.79;71.29;97804.22;8415288;28;20224;-76
2022/10/16 00:34:21;;;;;;;0.00;0.00;;;;;;;17.74;71.61;97804.56;8415607;28;20234;-76
2022/10/16 00:38:24;;;;;;;0.00;0.00;;;;;;;17.76;71.29;97802.66;8415532;28;20229;-76
2022/10/16 00:42:28;;;;;;;0.00;0.00;;;;;;;17.76;70.86;97792.19;8415058;28;20304;-76
2022/10/16 00:46:36;;;;;;;0.00;0.00;;;;;;;17.75;71.61;97795.75;8415231;28;20434;-76
2022/10/16 00:50:41;;;;;;;0.00;0.00;;;;;;;17.73;71.27;97802.88;8415287;28;20438;-76
2022/10/16 00:54:44;;;;;;;0.00;0.00;;;;;;;17.72;72.01;97816.09;8414880;28;20227;-77
2022/10/16 00:58:48;;;;;;;0.00;0.00;;;;;;;17.73;71.49;97826.47;8414734;28;20530;-76
2022/10/16 01:02:53;;;;;;;0.00;0.00;;;;;;;17.72;71.56;97813.47;8414069;28;20232;-76
2022/10/16 01:07:03;;;;;;;0.00;0.00;;;;;;;17.71;71.27;97807.41;8414278;28;20228;-76
2022/10/16 01:11:15;;;;;;;0.00;0.00;;;;;;;17.68;71.75;97814.66;8414048;28;20238;-76
2022/10/16 01:15:25;;;;;;;0.00;0.00;;;;;;;17.69;71.66;97817.16;8413684;28;20505;-76
2022/10/16 01:19:42;;;;;;;0.00;0.00;;;;;;;17.65;71.66;97812.25;8413459;28;20227;-77
2022/10/16 01:23:50;;;;;;;0.00;0.00;;;;;;;17.66;71.35;97808.72;8413349;28;20230;-76
2022/10/16 01:27:56;;;;;;;0.00;0.00;;;;;;;17.67;71.25;97812.97;8413167;28;20470;-76
2022/10/16 01:32:01;;;;;;;0.00;0.00;;;;;;;17.72;71.38;97816.09;8413262;28;20445;-77
2022/10/16 01:36:09;;;;;;;0.00;0.00;;;;;;;17.73;70.95;97826.47;8413160;28;20240;-77
2022/10/16 01:40:13;;;;;;;0.00;0.00;;;;;;;17.73;71.21;97831.69;8413067;28;20228;-76
2022/10/16 01:44:21;;;;;;;0.00;0.00;;;;;;;17.73;70.84;97836.94;8412496;28;20237;-75
2022/10/16 01:48:24;;;;;;;0.00;0.00;;;;;;;17.77;70.88;97845.41;8412736;28;20242;-76
2022/10/16 01:52:28;;;;;;;0.00;0.00;;;;;;;17.76;71.19;97846.34;8412527;28;20223;-76
2022/10/16 01:56:31;;;;;;;0.10;0.10;;;;;;;17.76;71.01;97841.94;8412748;28;20265;-77
2022/10/16 02:00:38;;;;;;;0.00;0.00;;;;;;;17.79;71.02;97846.13;8412665;28;20238;-77
2022/10/16 02:04:47;;;;;;;0.00;0.00;;;;;;;17.74;71.57;97843.84;8412802;28;20228;-76
2022/10/16 02:08:50;;;;;;;0.00;0.00;;;;;;;17.72;71.62;97847.53;8412807;28;20233;-76
2022/10/16 02:12:57;;;;;;;0.00;0.00;;;;;;;17.77;71.20;97848.03;8413100;28;20427;-76
2022/10/16 02:17:01;;;;;;;0.00;0.00;;;;;;;17.75;71.43;97845.50;8416747;28;20222;-77
2022/10/16 02:21:08;;;;;;;0.00;0.00;;;;;;;17.66;71.91;97845.38;8416702;28;20235;-76
2022/10/16 02:25:13;;;;;;;0.00;0.00;;;;;;;17.64;71.99;97842.03;8416474;28;20247;-76
2022/10/16 02:29:19;;;;;;;0.00;0.00;;;;;;;17.60;71.75;97844.03;8416076;28;20238;-75
2022/10/16 02:33:24;;;;;;;0.00;0.00;;;;;;;17.65;71.81;97836.69;8416229;28;20235;-76
2022/10/16 02:37:28;;;;;;;0.00;0.00;;;;;;;17.57;71.93;97841.66;8416380;28;20247;-77
2022/10/16 02:41:31;;;;;;;0.00;0.00;;;;;;;17.66;71.96;97834.91;8416088;28;20523;-77
2022/10/16 02:45:34;;;;;;;0.00;0.00;;;;;;;17.59;72.62;97842.38;8416088;28;20243;-76
2022/10/16 02:49:38;;;;;;;0.00;0.00;;;;;;;17.68;72.20;97841.69;8415956;28;20223;-76
2022/10/16 02:53:41;;;;;;;0.00;0.00;;;;;;;17.63;72.21;97841.22;8415738;28;20227;-76
2022/10/16 02:57:44;;;;;;;0.00;0.00;;;;;;;17.69;72.20;97851.22;8415467;28;20314;-76
2022/10/16 03:01:46;;;;;;;0.00;0.00;;;;;;;17.69;71.76;97853.84;8415649;28;20229;-76
2022/10/16 03:05:50;;;;;;;0.00;0.00;;;;;;;17.69;72.27;97856.44;8415848;28;20232;-76
2022/10/16 03:09:54;;;;;;;0.00;0.00;;;;;;;17.67;72.59;97852.25;8415283;28;20546;-76
2022/10/16 03:13:57;;;;;;;0.00;0.00;;;;;;;17.70;72.06;97852.88;8410461;28;129470;-76
2022/10/16 03:18:00;;;;;;;0.00;0.00;;;;;;;17.70;72.39;97852.88;8417086;28;20234;-76
2022/10/16 03:22:04;;;;;;;0.00;0.00;;;;;;;17.67;72.08;97850.50;8417228;28;20234;-76
2022/10/16 03:26:07;;;;;;;0.00;0.00;;;;;;;17.65;72.01;97855.03;8416432;28;20231;-76
2022/10/16 03:30:10;;;;;;;0.00;0.00;;;;;;;17.68;72.08;97860.00;8416670;28;20227;-76
2022/10/16 03:34:13;;;;;;;0.00;0.00;;;;;;;17.64;72.92;97855.94;8416466;28;20280;-77
2022/10/16 03:38:18;;;;;;;0.00;0.00;;;;;;;17.67;72.58;97853.13;8416002;28;20228;-76
2022/10/16 03:42:20;;;;;;;0.00;0.00;;;;;;;17.64;72.64;97853.34;8416090;28;20274;-76
2022/10/16 03:46:23;;;;;;;0.00;0.00;;;;;;;17.67;72.22;97862.72;8416177;28;20567;-75
2022/10/16 03:50:26;;;;;;;0.00;0.00;;;;;;;17.65;71.96;97856.78;8415999;28;20229;-75
2022/10/16 03:54:30;;;;;;;0.00;0.00;;;;;;;17.37;73.29;97858.84;8416159;28;20523;-76
2022/10/16 03:58:33;;;;;;;0.00;0.00;;;;;;;17.46;73.97;97863.41;8415753;28;20231;-76
2022/10/16 04:02:36;;;;;;;0.00;0.00;;;;;;;17.55;73.27;97861.88;8415841;28;20236;-76
2022/10/16 04:06:38;;;;;;;0.00;0.00;;;;;;;17.56;72.94;97877.47;8415603;28;20231;-76
2022/10/16 04:10:44;;;;;;;0.00;0.00;;;;;;;17.61;72.98;97890.25;8415256;28;20232;-76
2022/10/16 04:14:47;;;;;;;0.00;0.00;;;;;;;17.53;73.06;97888.16;8415082;28;20228;-76
2022/10/16 04:18:49;;;;;;;0.00;0.00;;;;;;;17.49;73.38;97884.09;8415026;28;20240;-76
2022/10/16 04:22:53;;;;;;;0.00;0.00;;;;;;;17.48;73.25;97892.94;8415071;28;20235;-76
2022/10/16 04:26:57;;;;;;;0.00;0.00;;;;;;;17.51;73.39;97884.81;8414993;28;20519;-76
2022/10/16 04:31:00;;;;;;;0.00;0.00;;;;;;;17.47;73.81;97882.56;8414870;28;20227;-76
2022/10/16 04:35:02;;;;;;;0.00;0.00;;;;;;;17.47;73.45;97886.00;8414116;28;20534;-76
2022/10/16 04:39:05;;;;;;;0.00;0.00;;;;;;;17.53;73.43;97888.16;8414769;28;20294;-76
2022/10/16 04:43:10;;;;;;;0.00;0.00;;;;;;;17.52;73.41;97896.16;8414598;28;20228;-76
2022/10/16 04:47:13;;;;;;;0.00;0.00;;;;;;;17.49;73.25;97889.34;8413992;28;20239;-76
2022/10/16 04:51:16;;;;;;;0.00;0.00;;;;;;;17.55;72.80;97886.28;8413791;28;20250;-76
2022/10/16 04:55:18;;;;;;;0.00;0.00;;;;;;;17.55;73.50;97895.91;8413848;28;20227;-77
2022/10/16 04:59:23;;;;;;;0.00;0.00;;;;;;;17.33;74.19;97888.81;8413762;28;20230;-76
2022/10/16 05:03:26;;;;;;;0.00;0.00;;;;;;;17.40;74.23;97887.41;8413444;28;20223;-77
2022/10/16 05:07:29;;;;;;;0.00;0.00;;;;;;;17.38;73.82;97894.53;8413884;28;20247;-77
2022/10/16 05:11:32;;;;;;;0.00;0.00;;;;;;;17.41;73.92;97899.56;8414446;28;20546;-77
2022/10/16 05:15:36;;;;;;;0.00;0.00;;;;;;;17.48;73.79;97889.47;8414255;28;20525;-77
2022/10/16 05:19:39;;;;;;;0.00;0.00;;;;;;;17.49;73.64;97909.47;8414129;28;20223;-77
2022/10/16 05:23:42;;;;;;;0.00;0.00;;;;;;;17.43;73.47;97904.69;8414215;28;20450;-76
2022/10/16 05:27:48;;;;;;;0.00;0.00;;;;;;;17.44;73.49;97915.03;8414258;28;20232;-76
2022/10/16 05:31:53;;;;;;;0.00;0.00;;;;;;;17.45;73.34;97927.16;8413831;28;20231;-76
2022/10/16 05:35:56;;;;;;;0.00;0.00;;;;;;;17.43;73.70;97926.44;8413890;28;20519;-76
2022/10/16 05:39:59;;;;;;;0.00;0.00;;;;;;;17.36;73.98;97931.31;8413934;28;20238;-77
2022/10/16 05:44:05;;;;;;;0.00;0.00;;;;;;;17.43;73.30;97936.09;8413631;28;20231;-76
2022/10/16 05:48:09;;;;;;;0.00;0.00;;;;;;;17.36;74.37;97951.41;8413633;28;20383;-76
2022/10/16 05:52:11;;;;;;;0.00;0.00;;;;;;;17.35;73.90;97955.81;8413549;28;20530;-76
2022/10/16 05:56:14;;;;;;;0.00;0.00;;;;;;;17.40;73.82;97952.84;8413133;28;20430;-75
2022/10/16 06:00:17;;;;;;;0.00;0.00;;;;;;;17.40;73.67;97952.84;8413485;28;20286;-76
2022/10/16 06:04:21;;;;;;;0.00;0.00;;;;;;;17.44;73.61;97956.06;8413303;28;20504;-77
2022/10/16 06:08:24;;;;;;;0.00;0.00;;;;;;;17.51;73.00;97954.69;8413297;28;20252;-77
2022/10/16 06:12:27;;;;;;;0.00;0.00;;;;;;;17.53;73.34;97955.41;8413220;28;20277;-77
2022/10/16 06:16:30;;;;;;;0.00;0.00;;;;;;;17.39;73.49;97949.41;8413179;28;20537;-77
2022/10/16 06:20:34;;;;;;;0.00;0.00;;;;;;;17.45;73.59;97950.72;8413334;28;20240;-76
2022/10/16 06:24:37;;;;;;;0.00;0.00;;;;;;;17.54;73.14;97964.94;8413259;28;20438;-77
2022/10/16 06:28:40;;;;;;;0.00;0.00;;;;;;;17.51;73.14;97971.22;8413285;28;20235;-76
2022/10/16 06:32:43;;;;;;;0.00;0.00;;;;;;;17.34;73.47;97955.91;8413247;28;20227;-77
2022/10/16 06:36:47;;;;;;;0.00;0.00;;;;;;;17.26;74.26;97959.06;8412841;28;20518;-77
2022/10/16 06:40:49;;;;;;;0.00;0.00;;;;;;;17.33;74.45;97965.53;8412806;28;20228;-77
2022/10/16 06:44:52;;;;;;;0.00;0.00;;;;;;;17.50;73.37;97976.59;8412999;28;20536;-76
2022/10/16 06:48:55;;;;;;;0.00;0.00;;;;;;;17.55;73.24;97988.41;8412718;28;20235;-76
2022/10/16 06:52:59;;;;;;;0.00;0.00;;;;;;;17.53;73.29;97985.03;8412656;28;20228;-77
2022/10/16 06:57:02;;;;;;;0.00;0.00;;;;;;;17.59;73.31;97999.47;8412681;28;20231;-77
2022/10/16 07:01:05;;;;;;;0.00;0.00;;;;;;;17.54;73.94;98002.44;8417195;28;20228;-77
2022/10/16 07:05:08;;;;;;;0.00;0.00;;;;;;;17.57;73.49;98017.94;8418686;28;20231;-76
2022/10/16 07:09:13;;;;;;;0.00;0.00;;;;;;;17.56;74.23;98021.47;8418410;28;20277;-76
2022/10/16 07:13:15;;;;;;;0.00;0.00;;;;;;;17.65;73.40;98040.09;8417783;28;20525;-76
2022/10/16 07:17:18;;;;;;;0.00;0.00;;;;;;;17.64;73.47;98028.78;8418120;28;20255;-77
2022/10/16 07:21:22;;;;;;;0.00;0.00;;;;;;;17.69;73.64;98046.78;8418274;28;20232;-76
2022/10/16 07:25:26;;;;;;;0.00;0.00;;;;;;;17.72;73.50;98049.19;8418095;28;20347;-76
2022/10/16 07:29:29;;;;;;;0.00;0.00;;;;;;;17.67;73.62;98046.91;8417904;28;20358;-77
2022/10/16 07:33:32;;;;;;;0.00;0.00;;;;;;;17.72;73.87;98039.53;8417470;28;20230;-77
2022/10/16 07:37:34;;;;;;;0.00;0.00;;;;;;;17.73;73.87;98048.25;8417498;28;20233;-77
2022/10/16 07:41:38;;;;;;;0.00;0.00;;;;;;;17.62;74.74;98043.78;8417661;28;20227;-76
2022/10/16 07:45:48;;;;;;;0.00;0.00;;;;;;;17.61;74.17;98046.50;8417365;28;20238;-77
2022/10/16 07:49:51;;;;;;;0.00;0.00;;;;;;;17.61;74.85;98044.72;8417451;28;20538;-76
2022/10/16 07:53:54;;;;;;;0.00;0.00;;;;;;;17.40;76.52;98060.16;8417108;28;20258;-77
2022/10/16 07:57:58;;;;;;;0.00;0.00;;;;;;;17.60;75.58;98069.22;8417091;28;20232;-77
2022/10/16 08:02:01;;;;;;;0.00;0.00;;;;;;;17.48;76.29;98077.97;8416797;28;20250;-77
2022/10/16 08:06:05;;;;;;;0.00;0.00;;;;;;;17.56;76.11;98083.50;8416371;28;20228;-76
2022/10/16 08:10:13;;;;;;;0.00;0.00;;;;;;;17.44;76.93;98089.59;8414993;28;20301;-76
2022/10/16 08:14:17;;;;;;;0.00;0.00;;;;;;;17.63;75.67;98084.72;8415635;28;20236;-75
2022/10/16 08:18:20;;;;;;;0.00;0.00;;;;;;;17.68;75.35;98090.47;8416096;28;20227;-76
2022/10/16 08:22:23;;;;;;;0.00;0.00;;;;;;;17.83;75.34;98080.66;8416003;28;20223;-76
2022/10/16 08:26:27;;;;;;;0.00;0.00;;;;;;;17.83;75.78;98078.06;8416031;28;20228;-76
2022/10/16 08:30:31;;;;;;;0.00;0.00;;;;;;;17.98;75.27;98074.34;8415491;28;20565;-77
2022/10/16 08:34:34;;;;;;;0.00;0.00;;;;;;;18.17;74.53;98076.47;8415952;28;20567;-76
2022/10/16 08:38:37;;;;;;;0.00;0.00;;;;;;;18.07;74.36;98075.47;8415816;28;20400;-76
2022/10/16 08:42:52;;;;;;;0.00;0.00;;;;;;;18.27;73.71;98091.50;8415612;28;20408;-76
2022/10/16 08:47:04;;;;;;;0.00;0.00;;;;;;;18.51;72.89;98084.44;8415309;28;20237;-76
2022/10/16 08:51:09;;;;;;;0.00;0.00;;;;;;;18.47;72.72;98090.88;8415230;28;20229;-80
2022/10/16 08:55:20;;;;;;;0.00;0.00;;;;;;;18.63;72.33;98094.97;8415203;28;20226;-78
2022/10/16 08:59:23;;;;;;;0.00;0.00;;;;;;;18.66;73.07;98094.75;8414345;28;20232;-77
2022/10/16 09:03:38;;;;;;;0.00;0.00;;;;;;;18.73;71.80;98098.56;8414831;28;20228;-76
2022/10/16 09:07:45;;;;;;;0.00;0.00;;;;;;;18.60;72.21;98101.28;8414445;28;20231;-77
2022/10/16 09:11:53;;;;;;;0.00;0.00;;;;;;;18.64;71.78;98102.72;8414319;28;20290;-77
2022/10/16 09:16:02;;;;;;;0.00;0.00;;;;;;;18.76;71.61;98098.34;8414452;28;20242;-77
2022/10/16 09:20:15;;;;;;;0.00;0.00;;;;;;;18.62;72.54;98111.63;8414478;28;20454;-77
2022/10/16 09:24:20;;;;;;;0.00;0.00;;;;;;;18.39;74.08;98118.59;8413597;28;20232;-76
2022/10/16 09:28:28;;;;;;;0.00;0.00;;;;;;;18.62;72.59;98123.00;8414118;28;20344;-77
2022/10/16 09:32:33;;;;;;;0.00;0.00;;;;;;;18.73;72.21;98125.66;8414273;28;20529;-76
2022/10/16 09:36:41;;;;;;;0.00;0.00;;;;;;;18.79;71.46;98126.97;8414099;28;20235;-77
2022/10/16 09:40:44;;;;;;;0.00;0.00;;;;;;;18.81;71.30;98132.09;8413730;28;20242;-77
2022/10/16 09:44:50;;;;;;;0.00;0.00;;;;;;;18.91;70.92;98136.56;8413939;28;20221;-77
2022/10/16 09:48:55;;;;;;;0.00;0.00;;;;;;;19.05;70.52;98134.66;8413909;28;20448;-77
2022/10/16 09:53:09;;;;;;;0.00;0.00;;;;;;;19.11;70.14;98128.94;8413320;28;20421;-77
2022/10/16 09:57:13;;;;;;;0.00;0.00;;;;;;;19.08;70.63;98134.44;8413582;28;20230;-77
2022/10/16 10:01:16;;;;;;;0.00;0.00;;;;;;;18.92;71.58;98129.50;8413307;28;20297;-76
2022/10/16 10:05:21;;;;;;;0.00;0.00;;;;;;;18.87;71.28;98129.88;8413389;28;20230;-77
2022/10/16 10:09:26;;;;;;;0.00;0.00;;;;;;;19.09;71.11;98136.09;8412935;28;20227;-76
2022/10/16 10:13:29;;;;;;;0.00;0.00;;;;;;;19.17;70.92;98138.13;8413221;28;20422;-77
2022/10/16 10:17:32;;;;;;;0.00;0.00;;;;;;;19.23;70.97;98135.88;8412969;28;20231;-77
2022/10/16 10:21:35;;;;;;;0.00;0.00;;;;;;;19.56;69.14;98143.88;8413296;28;20234;-77
2022/10/16 10:25:48;;;;;;;0.00;0.00;;;;;;;19.47;69.00;98143.63;8413448;28;20244;-77
2022/10/16 10:29:57;;;;;;;0.00;0.00;;;;;;;19.50;69.14;98148.66;8412919;28;20245;-76
2022/10/16 10:34:03;;;;;;;0.00;0.00;;;;;;;19.43;69.47;98146.63;8414531;28;20587;-77
2022/10/16 10:38:20;;;;;;;0.00;0.00;;;;;;;19.42;69.36;98147.56;8419251;28;20226;-77
2022/10/16 10:42:29;;;;;;;0.00;0.00;;;;;;;19.39;69.59;98145.19;8418746;28;20303;-77
2022/10/16 10:46:35;;;;;;;0.00;0.00;;;;;;;19.37;69.98;98145.31;8419242;28;20273;-79
2022/10/16 10:50:45;;;;;;;0.00;0.00;;;;;;;19.57;69.76;98148.16;8419026;28;20236;-76
2022/10/16 10:54:53;;;;;;;0.00;0.00;;;;;;;19.42;69.55;98147.56;8418781;28;20229;-76
2022/10/16 10:59:03;;;;;;;0.00;0.00;;;;;;;19.54;69.66;98142.22;8418866;28;20431;-85
2022/10/16 11:03:14;;;;;;;0.00;0.00;;;;;;;19.98;67.94;98165.13;8418659;28;20518;-78
2022/10/16 11:07:20;;;;;;;0.00;0.00;;;;;;;19.89;67.45;98164.06;8418140;28;20459;-73
2022/10/16 11:11:28;;;;;;;0.00;0.00;;;;;;;19.78;67.35;98171.94;8418328;28;20292;-78
2022/10/16 11:15:36;;;;;;;0.00;0.00;;;;;;;20.04;67.37;98159.38;8418254;28;20241;-80
2022/10/16 11:19:43;;;;;;;0.00;0.00;;;;;;;20.03;67.17;98155.06;8418314;28;20237;-77
2022/10/16 11:23:50;;;;;;;0.00;0.00;;;;;;;20.34;67.38;98166.59;8418321;28;20565;-80
2022/10/16 11:27:56;;;;;;;0.00;0.00;;;;;;;20.57;66.35;98163.88;8400661;28;20241;-79
2022/10/16 11:32:02;;;;;;;0.00;0.00;;;;;;;20.67;66.05;98164.81;8417966;28;20229;-79
2022/10/16 11:36:12;;;;;;;0.00;0.00;;;;;;;20.79;65.33;98174.31;8417844;28;20230;-79
2022/10/16 11:40:23;;;;;;;0.00;0.00;;;;;;;21.50;63.85;98168.38;8417211;28;20223;-78
2022/10/16 11:44:37;;;;;;;0.00;0.00;;;;;;;21.97;61.86;98166.06;8417302;28;20241;-79
2022/10/16 11:48:44;;;;;;;0.00;0.00;;;;;;;22.51;60.53;98160.47;8417238;28;20272;-78
2022/10/16 11:52:53;;;;;;;0.00;0.00;;;;;;;22.72;59.33;98158.50;8417170;28;20222;-79
2022/10/16 11:56:59;;;;;;;0.00;0.00;;;;;;;22.75;59.96;98160.03;8417068;28;20236;-79
2022/10/16 12:01:12;;;;;;;0.00;0.00;;;;;;;22.69;59.53;98158.78;8416833;28;20250;-78
2022/10/16 12:05:23;;;;;;;0.00;0.00;;;;;;;23.17;57.92;98157.91;8416321;28;20231;-78
2022/10/16 12:09:28;;;;;;;0.00;0.00;;;;;;;22.83;58.40;98179.47;8416644;28;20231;-77
2022/10/16 12:13:34;;;;;;;0.00;0.00;;;;;;;22.52;58.50;98170.84;8416173;28;20478;-78
2022/10/16 12:17:39;;;;;;;0.00;0.00;;;;;;;22.61;58.60;98177.13;8416589;28;20522;-78
2022/10/16 12:21:44;;;;;;;0.00;0.00;;;;;;;23.09;57.42;98164.88;8416253;28;20231;-79
2022/10/16 12:25:55;;;;;;;0.00;0.00;;;;;;;22.96;57.42;98159.84;8416339;28;20232;-79
2022/10/16 12:29:59;;;;;;;0.00;0.00;;;;;;;23.29;57.74;98161.22;8415538;28;20217;-78
2022/10/16 12:34:03;;;;;;;0.00;0.00;;;;;;;23.53;57.36;98155.44;8416111;28;20224;-78
2022/10/16 12:38:09;;;;;;;0.00;0.00;;;;;;;23.73;55.82;98156.16;8415252;28;20238;-78
2022/10/16 12:42:24;;;;;;;0.00;0.00;;;;;;;23.75;55.15;98156.84;8415529;28;20549;-76
2022/10/16 12:46:39;;;;;;;0.00;0.00;;;;;;;23.96;54.31;98161.91;8415275;28;20231;-75
2022/10/16 12:50:41;;;;;;;0.00;0.00;;;;;;;24.03;54.36;98156.03;8415161;28;20232;-76
2022/10/16 12:54:45;;;;;;;0.00;0.00;;;;;;;23.51;56.05;98152.06;8415540;28;20229;-77
2022/10/16 12:58:57;;;;;;;0.00;0.00;;;;;;;23.13;56.99;98147.75;8414473;28;20260;-76
2022/10/16 13:03:32;;;;;;;0.00;0.00;;;;;;;22.88;57.65;98146.53;8414956;28;20537;-77
2022/10/16 13:07:45;;;;;;;0.00;0.00;;;;;;;23.31;55.85;98155.78;8414282;28;20235;-75
2022/10/16 13:12:13;;;;;;;0.00;0.00;;;;;;;23.42;55.16;98145.88;8414691;28;20227;-77
2022/10/16 13:16:24;;;;;;;0.00;0.00;;;;;;;23.62;55.41;98157.19;8414087;28;20218;-77
2022/10/16 13:20:32;;;;;;;0.00;0.00;;;;;;;24.02;54.47;98159.66;8413156;28;20237;-76
2022/10/16 13:24:50;;;;;;;0.00;0.00;;;;;;;24.20;53.49;98163.19;8414282;28;20236;-77
2022/10/16 13:28:55;;;;;;;0.00;0.00;;;;;;;24.24;53.12;98175.13;8414177;28;20511;-78
2022/10/16 13:33:02;;;;;;;0.00;0.00;;;;;;;24.07;52.17;98182.03;8414074;28;20514;-78
2022/10/16 13:37:19;;;;;;;0.00;0.00;;;;;;;24.02;52.37;98176.34;8414029;28;20243;-78
2022/10/16 13:41:24;;;;;;;0.00;0.00;;;;;;;24.15;51.93;98186.59;8412675;28;20234;-79
2022/10/16 13:45:28;;;;;;;0.00;0.00;;;;;;;24.24;51.83;98185.69;8413386;28;20241;-78
2022/10/16 13:49:31;;;;;;;0.00;0.00;;;;;;;24.10;51.66;98191.47;8413708;28;20295;-76
2022/10/16 13:53:35;;;;;;;0.00;0.00;;;;;;;24.42;51.20;98190.19;8413826;28;20282;-77
2022/10/16 13:57:38;;;;;;;0.00;0.00;;;;;;;24.50;50.40;98198.19;8413390;28;20237;-77
2022/10/16 14:01:44;;;;;;;0.00;0.00;;;;;;;24.47;50.63;98196.69;8413320;28;20228;-76
2022/10/16 14:05:49;;;;;;;0.00;0.00;;;;;;;24.34;50.97;98190.94;8413228;28;20238;-76
2022/10/16 14:09:52;;;;;;;0.00;0.00;;;;;;;24.44;51.38;98186.38;8418190;28;20235;-76
2022/10/16 14:13:56;;;;;;;0.00;0.00;;;;;;;24.36;51.94;98183.66;8420133;28;20521;-78
2022/10/16 14:18:01;;;;;;;0.00;0.00;;;;;;;24.27;51.37;98189.84;8420434;28;20235;-77
2022/10/16 14:22:21;;;;;;;0.00;0.00;;;;;;;23.88;51.93;98190.91;8419816;28;20235;-78
2022/10/16 14:26:26;;;;;;;0.00;0.00;;;;;;;24.08;52.57;98191.63;8419726;28;20259;-78
2022/10/16 14:30:30;;;;;;;0.00;0.00;;;;;;;24.13;52.44;98185.91;8420143;28;20240;-79
2022/10/16 14:34:36;;;;;;;0.00;0.00;;;;;;;23.89;52.33;98189.09;8419861;28;20326;-78
2022/10/16 14:38:42;;;;;;;0.00;0.00;;;;;;;23.86;53.21;98186.75;8420074;28;20221;-78
2022/10/16 14:42:46;;;;;;;0.00;0.00;;;;;;;23.65;53.48;98195.72;8419496;28;20234;-77
2022/10/16 14:46:50;;;;;;;0.00;0.00;;;;;;;23.22;54.22;98197.91;8419224;28;20233;-78
2022/10/16 14:50:54;;;;;;;0.00;0.00;;;;;;;22.93;55.43;98205.88;8419090;28;20230;-78
2022/10/16 14:54:56;;;;;;;0.00;0.00;;;;;;;22.61;55.92;98204.34;8419341;28;20223;-78
2022/10/16 14:58:59;;;;;;;0.00;0.00;;;;;;;22.53;56.59;98198.94;8418890;28;20234;-77
2022/10/16 15:03:02;;;;;;;0.00;0.00;;;;;;;22.45;56.69;98196.97;8418955;28;20288;-77
2022/10/16 15:07:07;;;;;;;0.00;0.00;;;;;;;22.24;58.13;98201.50;8418550;28;20230;-78
2022/10/16 15:11:12;;;;;;;0.00;0.00;;;;;;;22.16;58.36;98207.47;8418697;28;20232;-78
2022/10/16 15:15:36;;;;;;;0.00;0.00;;;;;;;22.10;58.13;98202.69;8418123;28;20232;-79
2022/10/16 15:19:39;;;;;;;0.00;0.00;;;;;;;22.08;58.43;98209.09;8416084;28;20522;-79
2022/10/16 15:23:43;;;;;;;0.00;0.00;;;;;;;22.04;58.69;98221.72;8418349;28;20489;-78
2022/10/16 15:27:46;;;;;;;0.00;0.00;;;;;;;21.95;59.37;98215.47;8418282;28;20231;-77
2022/10/16 15:31:49;;;;;;;0.00;0.00;;;;;;;21.91;60.13;98223.75;8418315;28;20235;-75
2022/10/16 15:35:52;;;;;;;0.00;0.00;;;;;;;21.83;60.50;98221.78;8417809;28;20231;-75
2022/10/16 15:39:56;;;;;;;0.00;0.00;;;;;;;21.75;60.83;98219.81;8417406;28;20268;-77
2022/10/16 15:43:59;;;;;;;0.00;0.00;;;;;;;21.69;61.28;98216.88;8417513;28;20226;-71
2022/10/16 15:48:02;;;;;;;0.00;0.00;;;;;;;21.61;61.46;98212.25;8417549;28;20227;-78
2022/10/16 15:52:04;;;;;;;0.00;0.00;;;;;;;21.52;62.06;98224.41;8417585;28;20652;-77
2022/10/16 15:56:10;;;;;;;0.00;0.00;;;;;;;21.50;61.97;98225.53;8417376;28;20226;-73
2022/10/16 16:00:16;;;;;;;0.00;0.00;;;;;;;21.44;62.54;98230.34;8417375;28;20245;-76
2022/10/16 16:04:18;;;;;;;0.00;0.00;;;;;;;21.37;63.09;98233.59;8416833;28;20223;-80
2022/10/16 16:08:41;;;;;;;0.00;0.00;;;;;;;21.29;63.40;98244.78;8416746;28;20289;-81
2022/10/16 16:12:49;;;;;;;0.00;0.00;;;;;;;21.21;63.91;98242.78;8416762;28;20432;-77
2022/10/16 16:16:52;;;;;;;0.00;0.00;;;;;;;21.15;64.63;98248.56;8416471;28;20234;-77
2022/10/16 16:20:55;;;;;;;0.00;0.00;;;;;;;21.04;65.15;98252.09;8416569;28;20234;-79
2022/10/16 16:24:58;;;;;;;0.00;0.00;;;;;;;21.02;65.43;98247.94;8416496;28;20231;-77
2022/10/16 16:29:02;;;;;;;0.00;0.00;;;;;;;20.96;65.76;98251.03;8416342;28;20230;-82
2022/10/16 16:33:05;;;;;;;0.00;0.00;;;;;;;20.90;66.83;98260.28;8414591;28;20560;-79
2022/10/16 16:37:07;;;;;;;0.00;0.00;;;;;;;20.88;66.49;98260.41;8415799;28;20223;-77
2022/10/16 16:41:14;;;;;;;0.00;0.00;;;;;;;20.84;66.27;98264.25;8416312;28;20245;-83
2022/10/16 16:45:18;;;;;;;0.00;0.00;;;;;;;20.76;66.26;98265.84;8415163;28;20518;-78
2022/10/16 16:49:21;;;;;;;0.00;0.00;;;;;;;20.81;66.76;98268.91;8415374;28;20519;-77
2022/10/16 16:53:24;;;;;;;0.00;0.00;;;;;;;20.78;66.77;98280.53;8415447;28;20234;-77
2022/10/16 16:57:27;;;;;;;0.00;0.00;;;;;;;20.74;67.10;98273.03;8415001;28;20433;-75
2022/10/16 17:01:31;;;;;;;0.00;0.00;;;;;;;20.67;67.77;98270.88;8414843;28;20234;-77
2022/10/16 17:05:34;;;;;;;0.00;0.00;;;;;;;20.61;67.65;98278.44;8415222;28;20235;-78
2022/10/16 17:09:37;;;;;;;0.00;0.00;;;;;;;20.59;68.09;98288.22;8414962;28;20541;-79
2022/10/16 17:13:40;;;;;;;0.00;0.00;;;;;;;20.50;68.05;98288.03;8414921;28;20222;-78
2022/10/16 17:17:44;;;;;;;0.00;0.00;;;;;;;20.55;67.09;98292.91;8414854;28;20222;-76
2022/10/16 17:21:49;;;;;;;0.00;0.00;;;;;;;20.50;67.28;98284.53;8414371;28;20234;-77
2022/10/16 17:25:52;;;;;;;0.00;0.00;;;;;;;20.44;67.82;98285.84;8414660;28;20506;-79
2022/10/16 17:29:55;;;;;;;0.00;0.00;;;;;;;20.36;67.74;98282.19;8414372;28;20502;-77
2022/10/16 17:34:00;;;;;;;0.00;0.00;;;;;;;20.41;67.70;98283.50;8414941;28;20239;-76
2022/10/16 17:38:03;;;;;;;0.00;0.00;;;;;;;20.35;67.49;98280.50;8415011;28;20230;-75
2022/10/16 17:42:06;;;;;;;0.00;0.00;;;;;;;20.25;67.03;98283.03;8413569;28;20230;-78
2022/10/16 17:46:09;;;;;;;0.00;0.00;;;;;;;20.22;67.28;98286.75;8413676;28;20226;-77
2022/10/16 17:50:14;;;;;;;0.00;0.00;;;;;;;20.22;67.53;98284.13;8413595;28;20253;-77
2022/10/16 17:54:17;;;;;;;0.00;0.00;;;;;;;19.94;67.37;98292.50;8413721;28;20549;-75
2022/10/16 17:58:20;;;;;;;0.00;0.00;;;;;;;20.10;66.93;98296.44;8413484;28;20233;-76
2022/10/16 18:02:23;;;;;;;0.00;0.00;;;;;;;20.03;67.38;98303.13;8413369;28;20235;-77
2022/10/16 18:06:28;;;;;;;0.00;0.00;;;;;;;20.07;66.84;98299.28;8413357;28;20280;-78
2022/10/16 18:10:31;;;;;;;0.00;0.00;;;;;;;20.04;66.94;98312.66;8413306;28;20232;-78
2022/10/16 18:14:33;;;;;;;0.00;0.00;;;;;;;20.13;66.43;98320.81;8413455;28;20472;-75
2022/10/16 18:18:37;;;;;;;0.00;0.00;;;;;;;20.15;66.26;98319.72;8413388;28;20230;-78
2022/10/16 18:22:41;;;;;;;0.00;0.00;;;;;;;20.05;65.86;98316.97;8412494;28;20245;-80
2022/10/16 18:26:44;;;;;;;0.00;0.00;;;;;;;20.00;66.34;98316.50;8412895;28;20253;-76
2022/10/16 18:30:55;;;;;;;0.00;0.00;;;;;;;20.02;65.96;98325.09;8412819;28;20234;-73
2022/10/16 18:34:58;;;;;;;0.00;0.00;;;;;;;20.05;65.89;98326.66;8412949;28;20293;-79
2022/10/16 18:39:06;;;;;;;0.00;0.00;;;;;;;20.09;66.04;98333.34;8413088;28;20311;-76
2022/10/16 18:43:11;;;;;;;0.00;0.00;;;;;;;20.16;65.37;98338.97;8412957;28;20522;-79
2022/10/16 18:47:13;;;;;;;0.00;0.00;;;;;;;20.14;65.67;98349.59;8412943;28;20230;-77
2022/10/16 18:51:19;;;;;;;0.00;0.00;;;;;;;20.15;67.44;98346.03;8412631;28;20231;-76
2022/10/16 18:55:23;;;;;;;0.00;0.00;;;;;;;20.11;67.48;98352.47;8414453;28;20226;-77
2022/10/16 18:59:32;;;;;;;0.00;0.00;;;;;;;19.95;66.46;98355.44;8419078;28;20235;-77
2022/10/16 19:03:35;;;;;;;0.00;0.00;;;;;;;19.84;66.68;98361.53;8418807;28;20249;-78
2022/10/16 19:07:38;;;;;;;0.00;0.00;;;;;;;19.77;66.99;98368.19;8418092;28;20235;-77
2022/10/16 19:11:43;;;;;;;0.00;0.00;;;;;;;19.76;66.93;98374.38;8418461;28;20244;-78
2022/10/16 19:15:45;;;;;;;0.00;0.00;;;;;;;19.60;67.24;98372.06;8418359;28;20248;-78